createdAt,value
2023-04-18T00:01:56.954Z,99.90
2023-04-18T00:05:39.402Z,99.90
2023-04-18T00:09:23.551Z,99.90
2023-04-18T00:13:05.978Z,99.90
2023-04-18T00:16:48.038Z,99.90
2023-04-18T00:20:30.551Z,99.90
2023-04-18T00:24:12.768Z,99.90
2023-04-18T00:27:57.535Z,99.90
2023-04-18T00:31:42.157Z,99.90
2023-04-18T00:35:29.701Z,99.90
2023-04-18T00:39:11.830Z,99.90
2023-04-18T00:42:53.908Z,99.90
2023-04-18T00:46:35.994Z,99.90
2023-04-18T00:50:21.812Z,99.90
2023-04-18T00:54:06.281Z,99.90
2023-04-18T00:57:48.360Z,99.90
2023-04-18T01:01:32.870Z,99.90
2023-04-18T01:05:14.928Z,99.90
2023-04-18T01:08:57.075Z,99.90
2023-04-18T01:12:43.138Z,99.90
2023-04-18T01:16:25.264Z,99.90
2023-04-18T01:20:10.871Z,99.90
2023-04-18T01:24:14.441Z,99.90
2023-04-18T01:27:58.907Z,99.90
2023-04-18T01:31:41.800Z,99.90
2023-04-18T01:35:24.160Z,99.90
2023-04-18T01:39:06.765Z,99.90
2023-04-18T01:42:48.876Z,99.90
2023-04-18T01:46:33.997Z,99.90
2023-04-18T01:50:16.155Z,99.90
2023-04-18T01:53:58.251Z,99.90
2023-04-18T01:57:40.480Z,99.90
2023-04-18T02:01:22.691Z,99.90
2023-04-18T02:05:07.759Z,99.90
2023-04-18T02:08:51.110Z,99.90
2023-04-18T02:12:34.420Z,99.90
2023-04-18T02:16:16.568Z,99.90
2023-04-18T02:19:59.464Z,99.90
2023-04-18T02:23:42.744Z,99.90
2023-04-18T02:27:24.821Z,99.90
2023-04-18T02:31:07.642Z,99.90
2023-04-18T02:34:50.858Z,99.90
2023-04-18T02:38:35.626Z,99.90
2023-04-18T02:42:19.883Z,99.90
2023-04-18T02:46:01.984Z,99.90
2023-04-18T02:49:44.085Z,99.90
2023-04-18T02:53:26.205Z,99.90
2023-04-18T02:57:08.457Z,99.90
2023-04-18T03:00:54.399Z,99.90
2023-04-18T03:04:36.686Z,99.90
2023-04-18T03:08:18.732Z,99.90
2023-04-18T03:12:02.497Z,99.90
2023-04-18T03:15:44.857Z,99.90
2023-04-18T03:19:27.009Z,99.90
2023-04-18T03:23:09.104Z,99.90
2023-04-18T03:26:52.944Z,99.90
2023-04-18T03:30:35.074Z,99.90
2023-04-18T03:34:17.360Z,99.90
2023-04-18T03:38:04.291Z,99.90
2023-04-18T03:41:46.431Z,99.90
2023-04-18T03:45:33.917Z,99.90
2023-04-18T03:49:20.763Z,99.90
2023-04-18T03:53:05.119Z,99.90
2023-04-18T03:56:47.144Z,99.90
2023-04-18T04:00:29.522Z,99.90
2023-04-18T04:04:18.389Z,99.90
2023-04-18T04:08:02.626Z,99.90
2023-04-18T04:11:46.313Z,99.90
2023-04-18T04:15:28.510Z,99.90
2023-04-18T04:19:10.755Z,99.90
2023-04-18T04:22:52.823Z,99.90
2023-04-18T04:26:37.594Z,99.90
2023-04-18T04:30:19.923Z,99.90
2023-04-18T04:34:05.378Z,99.90
2023-04-18T04:37:47.485Z,99.90
2023-04-18T04:41:31.670Z,99.90
2023-04-18T04:45:13.901Z,99.90
2023-04-18T04:48:56.176Z,99.90
2023-04-18T04:52:40.249Z,99.90
2023-04-18T04:56:24.965Z,99.90
2023-04-18T05:00:08.727Z,99.90
2023-04-18T05:03:52.789Z,99.90
2023-04-18T05:07:35.009Z,99.90
2023-04-18T05:11:17.819Z,99.90
2023-04-18T05:14:59.938Z,99.90
2023-04-18T05:18:42.342Z,99.90
2023-04-18T05:22:24.358Z,99.90
2023-04-18T05:26:06.674Z,99.90
2023-04-18T05:29:51.831Z,99.90
2023-04-18T05:33:34.057Z,99.90
2023-04-18T05:37:18.718Z,99.90
2023-04-18T05:41:01.430Z,99.90
2023-04-18T05:44:43.444Z,99.90
2023-04-18T05:48:28.414Z,99.90
2023-04-18T05:52:11.499Z,99.90
2023-04-18T05:55:53.598Z,99.90
2023-04-18T05:59:35.658Z,99.90
2023-04-18T06:03:17.927Z,99.90
2023-04-18T06:07:04.334Z,99.90
2023-04-18T06:10:46.491Z,99.90
2023-04-18T06:14:29.096Z,99.90
2023-04-18T06:18:11.209Z,99.90
2023-04-18T06:21:53.717Z,99.90
2023-04-18T06:25:35.824Z,99.90
2023-04-18T06:33:23.527Z,99.90
2023-04-18T06:41:23.558Z,99.90
2023-04-18T06:49:09.190Z,99.90
2023-04-18T06:53:20.630Z,99.90
2023-04-18T06:57:03.892Z,99.90
2023-04-18T07:01:01.808Z,99.90
2023-04-18T07:04:44.230Z,99.90
2023-04-18T07:08:27.293Z,99.90
2023-04-18T07:12:27.355Z,99.90
2023-04-18T07:16:10.207Z,99.90
2023-04-18T07:24:12.429Z,99.90
2023-04-18T07:32:39.472Z,99.90
2023-04-18T07:36:21.868Z,99.90
2023-04-18T07:40:05.247Z,99.90
2023-04-18T07:43:58.573Z,99.90
2023-04-18T07:47:40.901Z,99.90
2023-04-18T07:55:24.769Z,99.90
2023-04-18T07:59:06.920Z,99.90
2023-04-18T08:03:38.549Z,99.90
2023-04-18T08:07:44.960Z,99.90
2023-04-18T08:11:27.948Z,99.90
2023-04-18T08:15:29.326Z,99.90
2023-04-18T08:19:12.073Z,99.90
2023-04-18T08:23:05.087Z,99.90
2023-04-18T08:26:57.873Z,99.90
2023-04-18T08:30:44.265Z,99.90
2023-04-18T08:34:43.985Z,99.90
2023-04-18T08:38:26.419Z,99.90
2023-04-18T08:42:36.750Z,99.90
2023-04-18T08:46:19.266Z,99.90
2023-04-18T08:50:32.510Z,99.90
2023-04-18T08:58:35.122Z,99.90
2023-04-18T09:02:18.183Z,99.90
2023-04-18T09:06:08.750Z,99.90
2023-04-18T09:09:58.062Z,96.70
2023-04-18T09:14:14.866Z,94.90
2023-04-18T09:18:03.459Z,94.30
2023-04-18T09:22:06.308Z,92.70
2023-04-18T09:25:59.536Z,96.10
2023-04-18T09:30:01.072Z,95.30
2023-04-18T09:42:22.931Z,97.30
2023-04-18T09:46:07.196Z,95.70
2023-04-18T09:50:12.616Z,95.20
2023-04-18T09:53:54.889Z,95.60
2023-04-18T09:58:05.747Z,92.60
2023-04-18T10:01:49.934Z,93.10
2023-04-18T10:05:59.772Z,92.30
2023-04-18T10:09:44.774Z,93.70
2023-04-18T10:13:53.762Z,94.40
2023-04-18T10:22:02.783Z,95.60
2023-04-18T10:26:10.153Z,93.00
2023-04-18T10:29:56.229Z,91.70
2023-04-18T10:34:05.397Z,85.80
2023-04-18T10:37:52.175Z,86.30
2023-04-18T10:41:50.733Z,86.20
2023-04-18T10:45:36.591Z,88.20
2023-04-18T10:53:22.807Z,89.60
2023-04-18T10:57:06.029Z,87.30
2023-04-18T11:05:05.655Z,89.30
2023-04-18T11:08:51.793Z,89.40
2023-04-18T11:12:43.145Z,90.50
2023-04-18T11:20:36.144Z,91.00
2023-04-18T11:33:17.491Z,91.70
2023-04-18T11:37:30.177Z,91.00
2023-04-18T11:45:39.295Z,92.40
2023-04-18T11:49:57.181Z,92.10
2023-04-18T12:02:17.019Z,92.80
2023-04-18T12:10:13.386Z,92.70
2023-04-18T12:18:15.379Z,92.20
2023-04-18T12:27:06.899Z,92.00
2023-04-18T12:36:07.582Z,91.90
2023-04-18T12:49:35.570Z,91.60
2023-04-18T12:57:40.151Z,92.00
2023-04-18T13:01:54.387Z,90.60
2023-04-18T13:05:37.322Z,90.30
2023-04-18T13:13:23.234Z,85.10
2023-04-18T13:17:41.206Z,85.20
2023-04-18T13:21:25.344Z,85.70
2023-04-18T13:29:11.090Z,84.80
2023-04-18T13:42:47.049Z,82.70
2023-04-18T13:50:42.845Z,79.70
2023-04-18T13:58:29.945Z,77.80
2023-04-18T14:02:44.263Z,78.70
2023-04-18T14:10:53.229Z,79.50
2023-04-18T14:18:52.420Z,79.90
2023-04-18T14:23:13.222Z,76.10
2023-04-18T14:32:23.546Z,77.20
2023-04-18T15:00:26.032Z,75.20
2023-04-18T15:15:00.982Z,77.40
2023-04-18T15:19:42.643Z,77.80
2023-04-18T15:24:01.746Z,78.00
2023-04-18T15:28:34.647Z,79.40
2023-04-18T15:37:26.804Z,79.00
2023-04-18T15:50:07.525Z,80.80
2023-04-18T15:54:29.909Z,80.70
2023-04-18T16:08:07.334Z,83.20
2023-04-18T16:26:59.407Z,84.60
2023-04-18T16:39:25.464Z,87.00
2023-04-18T16:51:58.622Z,87.20
2023-04-18T16:56:15.167Z,88.30
2023-04-18T17:13:28.087Z,91.20
2023-04-18T17:26:57.711Z,90.90
2023-04-18T17:44:43.513Z,90.30
2023-04-18T17:52:40.829Z,90.60
2023-04-18T18:01:44.062Z,91.10
2023-04-18T18:10:36.992Z,91.40
2023-04-18T18:18:33.126Z,91.40
2023-04-18T18:26:40.077Z,91.50
2023-04-18T18:31:08.416Z,91.70
2023-04-18T18:35:20.567Z,91.90
2023-04-18T18:39:02.622Z,92.10
2023-04-18T18:43:14.239Z,92.40
2023-04-18T18:51:04.467Z,92.60
2023-04-18T18:54:46.923Z,92.70
2023-04-18T18:58:35.984Z,92.90
2023-04-18T19:02:25.577Z,93.70
2023-04-18T19:10:14.932Z,93.70
2023-04-18T19:13:57.153Z,93.80
2023-04-18T19:17:45.641Z,94.30
2023-04-18T19:21:27.834Z,94.10
2023-04-18T19:25:10.163Z,94.50
2023-04-18T19:28:52.952Z,94.80
2023-04-18T19:32:37.858Z,95.00
2023-04-18T19:36:19.920Z,94.60
2023-04-18T19:40:02.922Z,94.90
2023-04-18T19:43:45.104Z,95.10
2023-04-18T19:47:28.038Z,95.60
2023-04-18T19:51:12.547Z,95.80
2023-04-18T19:54:54.860Z,96.00
2023-04-18T19:58:49.044Z,96.60
2023-04-18T20:02:31.083Z,96.70
2023-04-18T20:06:13.374Z,96.90
2023-04-18T20:09:55.374Z,97.00
2023-04-18T20:13:40.107Z,97.40
2023-04-18T20:17:22.074Z,97.40
2023-04-18T20:21:06.568Z,97.20
2023-04-18T20:24:49.246Z,97.30
2023-04-18T20:28:32.008Z,97.40
2023-04-18T20:32:13.912Z,97.80
2023-04-18T20:35:58.943Z,98.10
2023-04-18T20:39:42.172Z,98.30
2023-04-18T20:43:24.886Z,98.60
2023-04-18T20:47:06.812Z,98.80
2023-04-18T20:50:52.002Z,99.20
2023-04-18T20:54:34.002Z,99.60
2023-04-18T20:58:16.416Z,99.90
2023-04-18T21:01:58.535Z,99.90
2023-04-18T21:05:40.905Z,99.90
2023-04-18T21:09:23.208Z,99.90
2023-04-18T21:13:05.329Z,99.90
2023-04-18T21:16:47.324Z,99.90
2023-04-18T21:20:29.333Z,99.90
2023-04-18T21:24:11.344Z,99.90
2023-04-18T21:27:53.338Z,99.90
2023-04-18T21:31:35.679Z,99.90
2023-04-18T21:35:20.159Z,99.90
2023-04-18T21:39:04.099Z,99.90
2023-04-18T21:42:47.685Z,99.90
2023-04-18T21:46:30.626Z,99.90
2023-04-18T21:50:12.770Z,99.90
2023-04-18T21:53:54.755Z,99.90
2023-04-18T21:57:36.742Z,99.90
2023-04-18T22:01:18.872Z,99.90
2023-04-18T22:05:02.186Z,99.90
2023-04-18T22:08:44.194Z,99.90
2023-04-18T23:00:10.296Z,99.00
2023-04-18T23:03:55.490Z,99.90
2023-04-18T23:07:37.854Z,99.90
2023-04-18T23:11:19.790Z,99.90
2023-04-18T23:15:01.752Z,99.90
2023-04-18T23:18:43.680Z,99.90
2023-04-18T23:22:25.787Z,99.90
2023-04-18T23:26:16.888Z,99.90
2023-04-18T23:29:58.990Z,99.90
2023-04-18T23:33:40.999Z,99.90
2023-04-18T23:37:22.936Z,99.90
2023-04-18T23:41:04.944Z,99.90
2023-04-18T23:44:47.146Z,99.90
2023-04-18T23:48:29.142Z,99.90
2023-04-18T23:52:11.202Z,99.90
2023-04-18T23:55:53.789Z,99.90
2023-04-18T23:59:38.101Z,99.90
